Time;durP1;ratioP1;P1;durP2;ratioP2;P2;SDS_P1;SDS_P2;PMS_P1;PMS_P2;Temp;Humidity;BMP_temperature;BMP_pressure;BME280_temperature;BME280_humidity;BME280_pressure;Samples;Min_cycle;Max_cycle;Signal;HPM_P1;HPM_P2
2020/12/20 00:00:14;;;;;;;16.55;8.38;;;8.50;99.90;;;;;;5058308;28;20024;-64
2020/12/20 00:02:40;;;;;;;17.40;8.02;;;8.60;99.90;;;;;;5096136;28;20099;-63
2020/12/20 00:05:07;;;;;;;15.93;8.38;;;8.50;99.90;;;;;;5100139;28;20035;-65
2020/12/20 00:07:33;;;;;;;25.10;8.85;;;8.60;99.90;;;;;;5087238;28;20039;-64
2020/12/20 00:09:58;;;;;;;17.38;8.60;;;8.60;99.90;;;;;;5085495;28;20028;-62
2020/12/20 00:12:24;;;;;;;19.83;7.80;;;8.60;99.90;;;;;;5091996;28;20145;-64
2020/12/20 00:14:50;;;;;;;18.80;7.72;;;8.70;99.90;;;;;;5084077;28;20031;-63
2020/12/20 00:17:15;;;;;;;12.63;7.45;;;8.70;99.90;;;;;;5092621;28;20028;-62
2020/12/20 00:19:42;;;;;;;20.95;7.63;;;8.70;99.90;;;;;;5082991;28;20024;-64
2020/12/20 00:22:10;;;;;;;16.77;7.55;;;8.80;99.90;;;;;;5085886;28;20562;-63
2020/12/20 00:24:36;;;;;;;14.02;7.45;;;8.80;99.90;;;;;;5084590;28;20025;-63
2020/12/20 00:27:03;;;;;;;18.17;6.60;;;8.80;99.90;;;;;;5082450;28;20027;-65
2020/12/20 00:29:32;;;;;;;12.88;7.47;;;8.90;99.90;;;;;;5090948;28;20020;-63
2020/12/20 00:31:58;;;;;;;17.30;7.38;;;8.90;99.90;;;;;;5082684;28;20051;-64
2020/12/20 00:34:24;;;;;;;18.67;6.93;;;8.90;99.90;;;;;;5101073;28;20210;-63
2020/12/20 00:36:50;;;;;;;15.50;6.93;;;8.90;99.90;;;;;;5099826;28;20102;-64
2020/12/20 00:39:18;;;;;;;16.40;6.90;;;8.90;99.90;;;;;;5094363;28;20374;-62
2020/12/20 00:41:52;;;;;;;24.15;7.90;;;8.90;99.90;;;;;;5092081;28;20072;-63
2020/12/20 00:44:19;;;;;;;18.55;6.88;;;9.00;99.90;;;;;;5089158;28;20070;-64
2020/12/20 00:46:45;;;;;;;14.75;6.63;;;8.90;99.90;;;;;;5094766;28;20023;-62
2020/12/20 00:49:10;;;;;;;13.60;7.38;;;8.90;99.90;;;;;;5107316;28;20054;-63
2020/12/20 00:51:36;;;;;;;13.95;6.60;;;8.90;99.90;;;;;;5095603;28;20028;-64
2020/12/20 00:54:02;;;;;;;13.00;6.95;;;9.00;99.90;;;;;;5103431;28;20056;-62
2020/12/20 00:56:28;;;;;;;15.35;6.68;;;9.00;99.90;;;;;;5089458;28;20031;-62
2020/12/20 00:58:54;;;;;;;19.52;6.43;;;9.00;99.90;;;;;;5106093;28;20043;-63
2020/12/20 01:01:21;;;;;;;17.42;6.65;;;9.00;99.90;;;;;;5083777;28;20050;-63
2020/12/20 01:03:47;;;;;;;15.25;6.03;;;9.00;99.90;;;;;;5106587;28;20028;-63
2020/12/20 01:06:23;;;;;;;18.45;6.55;;;9.10;99.90;;;;;;5104438;28;20020;-62
2020/12/20 01:08:49;;;;;;;15.77;6.43;;;9.10;99.90;;;;;;5092123;28;20558;-62
2020/12/20 01:11:16;;;;;;;18.48;6.30;;;9.10;99.90;;;;;;5090623;28;20032;-63
2020/12/20 01:13:46;;;;;;;12.93;6.57;;;9.10;99.90;;;;;;5090077;28;20035;-63
2020/12/20 01:16:20;;;;;;;13.98;5.75;;;9.10;99.90;;;;;;5088893;28;20128;-63
2020/12/20 01:18:46;;;;;;;11.40;5.75;;;9.20;99.90;;;;;;5089860;28;20444;-63
2020/12/20 01:21:13;;;;;;;14.95;6.55;;;9.20;99.90;;;;;;5089754;28;20403;-64
2020/12/20 01:23:38;;;;;;;9.88;5.93;;;9.20;99.90;;;;;;5102715;28;20027;-62
2020/12/20 01:26:05;;;;;;;18.95;6.50;;;9.20;99.90;;;;;;5097120;28;20400;-62
2020/12/20 01:28:31;;;;;;;12.23;6.13;;;9.20;99.90;;;;;;5108163;28;20023;-62
2020/12/20 01:30:56;;;;;;;23.40;6.22;;;9.20;99.90;;;;;;5110742;28;20020;-63
2020/12/20 01:33:22;;;;;;;14.50;5.65;;;9.20;99.90;;;;;;5089090;28;20081;-63
2020/12/20 01:35:49;;;;;;;16.17;6.97;;;9.20;99.90;;;;;;5092560;28;20110;-62
2020/12/20 01:38:14;;;;;;;11.93;5.78;;;9.20;99.90;;;;;;5094497;28;20022;-62
2020/12/20 01:40:40;;;;;;;10.20;5.68;;;9.20;99.90;;;;;;5101910;28;20047;-63
2020/12/20 01:43:06;;;;;;;15.73;5.88;;;9.20;99.90;;;;;;5079915;28;20382;-62
2020/12/20 01:45:31;;;;;;;13.23;5.57;;;9.20;99.90;;;;;;5085965;28;20023;-63
2020/12/20 01:47:58;;;;;;;15.35;5.32;;;9.20;99.90;;;;;;5083011;28;20039;-62
2020/12/20 01:50:23;;;;;;;15.65;5.15;;;9.30;99.90;;;;;;5088878;28;20024;-61
2020/12/20 01:52:49;;;;;;;19.75;5.85;;;9.30;99.90;;;;;;5089322;28;20028;-61
2020/12/20 01:55:18;;;;;;;13.13;6.20;;;9.40;99.90;;;;;;5077496;28;20036;-63
2020/12/20 01:57:44;;;;;;;19.42;5.82;;;9.30;99.90;;;;;;5077841;28;20027;-62
2020/12/20 02:00:09;;;;;;;16.90;6.55;;;9.30;99.90;;;;;;5071880;28;20086;-62
2020/12/20 02:02:35;;;;;;;18.27;6.43;;;9.30;99.90;;;;;;5071648;28;20510;-64
2020/12/20 02:05:01;;;;;;;14.38;6.43;;;9.30;99.90;;;;;;5075792;28;20095;-63
2020/12/20 02:07:27;;;;;;;17.92;6.25;;;9.30;99.90;;;;;;5054533;28;20486;-63
2020/12/20 02:09:52;;;;;;;14.05;5.43;;;9.30;99.90;;;;;;5081995;28;20027;-62
2020/12/20 02:12:18;;;;;;;23.38;6.10;;;9.30;99.90;;;;;;5077602;28;20486;-62
2020/12/20 02:14:43;;;;;;;20.42;5.90;;;9.20;99.90;;;;;;5077330;28;20081;-65
2020/12/20 02:17:09;;;;;;;19.95;5.45;;;9.20;99.90;;;;;;5078377;28;20525;-62
2020/12/20 02:19:34;;;;;;;15.23;5.88;;;9.10;99.90;;;;;;5074213;28;20032;-62
2020/12/20 02:22:00;;;;;;;16.27;5.88;;;9.10;99.90;;;;;;5083718;28;20387;-62
2020/12/20 02:24:26;;;;;;;16.88;5.95;;;9.20;99.90;;;;;;5074377;28;20025;-62
2020/12/20 02:26:52;;;;;;;16.35;5.05;;;9.10;99.90;;;;;;5083793;28;20481;-63
2020/12/20 02:29:18;;;;;;;12.70;5.65;;;9.10;99.90;;;;;;5074925;28;20037;-62
2020/12/20 02:31:43;;;;;;;13.85;5.65;;;9.10;99.90;;;;;;5079675;28;20031;-62
2020/12/20 02:34:12;;;;;;;17.67;6.30;;;9.10;99.90;;;;;;5081919;28;20024;-63
2020/12/20 02:36:38;;;;;;;14.98;6.10;;;9.20;99.90;;;;;;5075737;28;20128;-62
2020/12/20 02:39:07;;;;;;;17.33;6.75;;;9.10;99.90;;;;;;5080728;28;20447;-62
2020/12/20 02:41:34;;;;;;;20.55;5.93;;;9.10;99.90;;;;;;5081515;28;20032;-62
2020/12/20 02:43:59;;;;;;;12.35;5.35;;;9.00;99.90;;;;;;5081594;28;20068;-63
2020/12/20 02:46:26;;;;;;;19.35;6.28;;;9.00;99.90;;;;;;5086190;28;20036;-62
2020/12/20 02:48:52;;;;;;;18.15;6.32;;;8.90;99.90;;;;;;5078918;28;20013;-63
2020/12/20 02:51:18;;;;;;;13.85;6.35;;;8.80;99.90;;;;;;5077726;28;20442;-63
2020/12/20 02:53:45;;;;;;;18.50;6.35;;;8.70;99.90;;;;;;5075698;28;20048;-62
2020/12/20 02:56:12;;;;;;;17.15;6.88;;;8.60;99.90;;;;;;5078448;28;20024;-63
2020/12/20 02:58:38;;;;;;;11.88;5.25;;;8.70;99.90;;;;;;5079564;28;20025;-63
2020/12/20 03:01:04;;;;;;;15.07;6.20;;;8.60;99.90;;;;;;5080205;28;20428;-62
2020/12/20 03:03:29;;;;;;;12.98;5.78;;;8.60;99.90;;;;;;5087478;28;20413;-62
2020/12/20 03:05:55;;;;;;;15.70;5.55;;;8.60;99.90;;;;;;5088943;28;20017;-62
2020/12/20 03:08:20;;;;;;;15.23;6.15;;;8.60;99.90;;;;;;5073200;28;20024;-62
2020/12/20 03:10:46;;;;;;;14.75;5.65;;;8.60;99.90;;;;;;5096573;28;20450;-62
2020/12/20 03:13:11;;;;;;;15.02;6.03;;;8.60;99.90;;;;;;5094973;28;20024;-62
2020/12/20 03:15:41;;;;;;;15.43;5.80;;;8.60;99.90;;;;;;5091205;28;20051;-63
2020/12/20 03:18:07;;;;;;;18.98;5.68;;;8.60;99.90;;;;;;5090958;28;20465;-62
2020/12/20 03:20:32;;;;;;;16.13;6.25;;;8.60;99.90;;;;;;5091293;28;20031;-64
2020/12/20 03:22:59;;;;;;;16.40;5.75;;;8.60;99.90;;;;;;5091185;28;20020;-62
2020/12/20 03:25:24;;;;;;;19.30;6.05;;;8.60;99.90;;;;;;5077893;28;20020;-63
2020/12/20 03:27:50;;;;;;;19.38;6.28;;;8.70;99.90;;;;;;5092029;28;20016;-63
2020/12/20 03:30:15;;;;;;;13.65;5.10;;;8.60;99.90;;;;;;5070896;28;20031;-63
2020/12/20 03:32:41;;;;;;;17.02;6.80;;;8.60;99.90;;;;;;5084591;28;20032;-63
2020/12/20 03:35:07;;;;;;;15.18;5.60;;;8.60;99.90;;;;;;5080871;28;20044;-64
2020/12/20 03:37:32;;;;;;;18.15;6.15;;;8.60;99.90;;;;;;5102361;28;20032;-63
2020/12/20 03:39:58;;;;;;;15.70;6.10;;;8.60;99.90;;;;;;5078110;28;20027;-62
2020/12/20 03:42:23;;;;;;;16.20;5.53;;;8.60;99.90;;;;;;5078378;28;20654;-62
2020/12/20 03:44:49;;;;;;;13.45;6.30;;;8.60;99.90;;;;;;5071529;28;20045;-63
2020/12/20 03:47:14;;;;;;;17.58;6.95;;;8.60;99.90;;;;;;5087882;28;20042;-62
2020/12/20 03:49:40;;;;;;;23.67;7.07;;;8.60;99.90;;;;;;5091717;28;20152;-63
2020/12/20 03:52:05;;;;;;;17.58;7.82;;;8.60;99.90;;;;;;5089536;28;20028;-62
2020/12/20 03:54:31;;;;;;;18.73;6.80;;;8.60;99.90;;;;;;5078453;28;20039;-63
2020/12/20 03:56:57;;;;;;;14.00;6.55;;;8.60;99.90;;;;;;5091298;28;20587;-63
2020/12/20 03:59:22;;;;;;;20.30;7.05;;;8.60;99.90;;;;;;5077114;28;20024;-63
2020/12/20 04:01:48;;;;;;;13.40;6.15;;;8.60;99.90;;;;;;5089586;28;20107;-62
2020/12/20 04:04:14;;;;;;;21.08;6.40;;;8.60;99.90;;;;;;5087864;28;20089;-63
2020/12/20 04:06:39;;;;;;;19.58;6.07;;;8.60;99.90;;;;;;5074810;28;20104;-63
2020/12/20 04:09:05;;;;;;;18.10;6.50;;;8.50;99.90;;;;;;5053464;28;20052;-62
2020/12/20 04:11:30;;;;;;;18.77;6.57;;;8.50;99.90;;;;;;5078810;28;20078;-62
2020/12/20 04:13:56;;;;;;;16.02;7.18;;;8.50;99.90;;;;;;5091161;28;20486;-62
2020/12/20 04:16:21;;;;;;;19.67;7.30;;;8.50;99.90;;;;;;5081744;28;20024;-62
2020/12/20 04:18:47;;;;;;;20.23;7.03;;;8.50;99.90;;;;;;5098403;28;20381;-62
2020/12/20 04:21:12;;;;;;;19.60;6.22;;;8.50;99.90;;;;;;5079462;28;20798;-62
2020/12/20 04:23:38;;;;;;;23.67;7.07;;;8.50;99.90;;;;;;5084593;28;20031;-63
2020/12/20 04:26:05;;;;;;;17.85;6.72;;;8.40;99.90;;;;;;5078952;28;20032;-62
2020/12/20 04:28:31;;;;;;;13.70;6.63;;;8.40;99.90;;;;;;5070988;28;20016;-62
2020/12/20 04:30:57;;;;;;;17.92;7.10;;;8.40;99.90;;;;;;5082950;28;20028;-63
2020/12/20 04:33:22;;;;;;;20.20;7.40;;;8.40;99.90;;;;;;5081933;28;20020;-63
2020/12/20 04:35:48;;;;;;;16.85;7.18;;;8.40;99.90;;;;;;5090077;28;20035;-63
2020/12/20 04:38:14;;;;;;;21.85;6.72;;;8.50;99.90;;;;;;5091265;28;20024;-63
2020/12/20 04:40:40;;;;;;;23.63;7.93;;;8.50;99.90;;;;;;5083673;28;20030;-63
2020/12/20 04:43:11;;;;;;;18.95;6.93;;;8.50;99.90;;;;;;5087190;28;20048;-62
2020/12/20 04:45:37;;;;;;;15.50;7.18;;;8.50;99.90;;;;;;5099171;28;20035;-62
2020/12/20 04:48:03;;;;;;;21.23;6.93;;;8.50;99.90;;;;;;5093760;28;20519;-62
2020/12/20 04:50:29;;;;;;;17.83;6.22;;;8.50;99.90;;;;;;5100208;28;20032;-63
2020/12/20 04:52:57;;;;;;;15.68;6.30;;;8.50;99.90;;;;;;5099143;28;20283;-64
2020/12/20 04:55:23;;;;;;;21.02;6.60;;;8.50;99.90;;;;;;5102082;28;20028;-63
2020/12/20 04:57:50;;;;;;;15.85;7.15;;;8.50;99.90;;;;;;5089958;28;20023;-62
2020/12/20 05:00:17;;;;;;;16.85;6.90;;;8.50;99.90;;;;;;5085692;28;20074;-61
2020/12/20 05:02:43;;;;;;;22.75;7.57;;;8.40;99.90;;;;;;5093599;28;20028;-63
2020/12/20 05:05:09;;;;;;;25.60;7.63;;;8.50;99.90;;;;;;5094158;28;20032;-64
2020/12/20 05:07:34;;;;;;;25.63;7.70;;;8.40;99.90;;;;;;5089077;28;20028;-63
2020/12/20 05:10:00;;;;;;;19.52;7.05;;;8.40;99.90;;;;;;5086599;28;20016;-63
2020/12/20 05:12:32;;;;;;;18.70;7.18;;;8.40;99.90;;;;;;5087834;28;20095;-62
2020/12/20 05:14:59;;;;;;;18.70;7.37;;;8.30;99.90;;;;;;5089739;28;20028;-62
2020/12/20 05:17:27;;;;;;;17.55;6.88;;;8.30;99.90;;;;;;5097374;28;20497;-63
2020/12/20 05:19:53;;;;;;;14.55;6.63;;;8.30;99.90;;;;;;5085886;28;20108;-63
2020/12/20 05:22:22;;;;;;;17.48;6.60;;;8.30;99.90;;;;;;5090481;28;20043;-63
2020/12/20 05:24:51;;;;;;;28.83;7.35;;;8.30;99.90;;;;;;5083243;28;20025;-63
2020/12/20 05:27:27;;;;;;;18.20;7.13;;;8.30;99.90;;;;;;5089208;28;20493;-62
2020/12/20 05:29:53;;;;;;;20.63;6.60;;;8.30;99.90;;;;;;5085589;28;20024;-63
2020/12/20 05:32:30;;;;;;;18.75;6.70;;;8.30;99.90;;;;;;5088511;28;20489;-63
2020/12/20 05:35:10;;;;;;;19.38;6.90;;;8.30;99.90;;;;;;5090559;28;20066;-62
2020/12/20 05:37:37;;;;;;;16.65;6.95;;;8.30;99.90;;;;;;5089068;28;20024;-63
2020/12/20 05:40:08;;;;;;;13.15;6.75;;;8.20;99.90;;;;;;5102460;28;20024;-62
2020/12/20 05:42:34;;;;;;;25.05;7.25;;;8.20;99.90;;;;;;5093050;28;20099;-63
2020/12/20 05:45:11;;;;;;;20.27;7.78;;;8.20;99.90;;;;;;5145690;22;20051;-60
2020/12/20 05:47:39;;;;;;;24.63;8.40;;;8.20;99.90;;;;;;5135157;27;20015;-60
2020/12/20 05:50:05;;;;;;;17.05;7.55;;;8.20;99.90;;;;;;5102371;27;20071;-60
2020/12/20 05:52:31;;;;;;;18.38;7.40;;;8.20;99.90;;;;;;5135477;27;20020;-60
2020/12/20 05:54:57;;;;;;;17.13;6.85;;;8.20;99.90;;;;;;5134119;27;20023;-60
2020/12/20 05:57:24;;;;;;;26.75;6.95;;;8.20;99.90;;;;;;5141417;27;20132;-60
2020/12/20 05:59:51;;;;;;;16.52;6.72;;;8.20;99.90;;;;;;5136308;27;20075;-60
2020/12/20 06:02:17;;;;;;;22.70;7.50;;;8.20;99.90;;;;;;5128248;27;20024;-60
2020/12/20 06:04:44;;;;;;;25.17;7.68;;;8.20;99.90;;;;;;5130145;27;20054;-60
2020/12/20 06:07:12;;;;;;;19.35;7.05;;;8.20;99.90;;;;;;5166316;27;20033;-60
2020/12/20 06:09:55;;;;;;;28.63;7.03;;;8.20;99.90;;;;;;5153327;27;20045;-60
2020/12/20 06:12:30;;;;;;;17.65;7.35;;;8.10;99.90;;;;;;5142982;27;20023;-60
2020/12/20 06:14:57;;;;;;;21.20;7.40;;;8.10;99.90;;;;;;5141058;27;20120;-60
2020/12/20 06:17:27;;;;;;;27.20;8.57;;;8.10;99.90;;;;;;5143913;27;20027;-59
2020/12/20 06:20:04;;;;;;;34.00;7.57;;;8.00;99.90;;;;;;5149380;27;20481;-60
2020/12/20 06:22:34;;;;;;;18.23;7.00;;;8.10;99.90;;;;;;5137675;27;20525;-60
2020/12/20 06:25:04;;;;;;;15.50;6.45;;;8.00;99.90;;;;;;5140261;27;20031;-63
2020/12/20 06:27:31;;;;;;;19.85;6.22;;;8.00;99.90;;;;;;5128907;27;20070;-60
2020/12/20 06:29:59;;;;;;;24.63;5.93;;;8.00;99.90;;;;;;5140405;27;20055;-60
2020/12/20 06:32:29;;;;;;;30.15;7.93;;;8.00;99.90;;;;;;5133522;27;20480;-60
2020/12/20 06:34:58;;;;;;;18.15;6.78;;;8.00;99.90;;;;;;5144217;27;20453;-60
2020/12/20 06:37:24;;;;;;;29.05;7.30;;;8.00;99.90;;;;;;5144327;27;20054;-61
2020/12/20 06:39:50;;;;;;;21.45;6.65;;;8.00;99.90;;;;;;5140410;27;20027;-59
2020/12/20 06:42:34;;;;;;;26.67;7.35;;;7.90;99.90;;;;;;5139637;27;20041;-60
2020/12/20 06:45:19;;;;;;;23.38;7.75;;;7.90;99.90;;;;;;5110326;27;20066;-60
2020/12/20 06:47:46;;;;;;;27.17;7.57;;;7.90;99.90;;;;;;5141300;27;20022;-60
2020/12/20 06:50:12;;;;;;;22.23;7.30;;;7.90;99.90;;;;;;5118679;27;20503;-60
2020/12/20 06:52:48;;;;;;;27.05;7.47;;;7.90;99.90;;;;;;5142842;27;20031;-59
2020/12/20 06:55:16;;;;;;;29.63;7.97;;;7.90;99.90;;;;;;5142927;27;20038;-60
2020/12/20 06:58:03;;;;;;;31.30;7.85;;;7.80;99.90;;;;;;5125488;27;20031;-59
2020/12/20 07:00:50;;;;;;;27.70;7.05;;;7.80;99.90;;;;;;5134388;27;20054;-59
2020/12/20 07:03:22;;;;;;;24.90;8.07;;;7.80;99.90;;;;;;5142663;27;20074;-63
2020/12/20 07:05:48;;;;;;;24.77;6.93;;;7.80;99.90;;;;;;5134289;27;20019;-59
2020/12/20 07:08:23;;;;;;;18.58;6.88;;;7.90;99.90;;;;;;5146574;27;20502;-59
2020/12/20 07:10:58;;;;;;;24.92;7.55;;;7.80;99.90;;;;;;5149706;27;20026;-59
2020/12/20 07:13:36;;;;;;;25.42;7.30;;;7.80;99.90;;;;;;5134792;27;20019;-59
2020/12/20 07:16:10;;;;;;;19.17;7.32;;;7.80;99.90;;;;;;5140525;27;20016;-59
2020/12/20 07:18:42;;;;;;;19.50;6.78;;;7.80;99.90;;;;;;5137376;27;20166;-60
2020/12/20 07:21:32;;;;;;;24.52;6.85;;;7.80;99.90;;;;;;5146562;27;20475;-57
2020/12/20 07:24:00;;;;;;;42.72;7.63;;;7.90;99.90;;;;;;5125647;27;20122;-58
2020/12/20 07:26:26;;;;;;;23.48;6.57;;;7.80;99.90;;;;;;5148885;27;20097;-59
2020/12/20 07:28:57;;;;;;;16.20;6.22;;;7.80;99.90;;;;;;5130944;27;20105;-59
2020/12/20 07:31:23;;;;;;;20.77;7.35;;;7.80;99.90;;;;;;5140827;27;20396;-59
2020/12/20 07:33:50;;;;;;;19.38;6.05;;;7.80;99.90;;;;;;5140828;27;20023;-60
2020/12/20 07:36:18;;;;;;;22.88;7.25;;;7.80;99.90;;;;;;5121890;27;20076;-59
2020/12/20 07:38:44;;;;;;;21.38;6.55;;;7.70;99.90;;;;;;5140571;27;20057;-60
2020/12/20 07:41:10;;;;;;;23.63;6.68;;;7.80;99.90;;;;;;5126712;27;20054;-60
2020/12/20 07:43:36;;;;;;;23.55;7.10;;;7.70;99.90;;;;;;5132506;27;20042;-59
2020/12/20 07:46:05;;;;;;;23.70;7.03;;;7.70;99.90;;;;;;5136668;27;20019;-59
2020/12/20 07:48:31;;;;;;;25.92;5.85;;;7.70;99.90;;;;;;5149441;27;20123;-61
2020/12/20 07:51:11;;;;;;;26.45;7.88;;;7.70;99.90;;;;;;5148103;27;20074;-60
2020/12/20 07:54:03;;;;;;;22.52;7.82;;;7.70;99.90;;;;;;5140408;27;20476;-59
2020/12/20 07:56:33;;;;;;;20.65;6.55;;;7.70;99.90;;;;;;5117253;27;20468;-60
2020/12/20 07:59:19;;;;;;;19.23;6.97;;;7.80;99.90;;;;;;5141305;27;20028;-58
2020/12/20 08:01:48;;;;;;;21.58;6.95;;;7.80;99.90;;;;;;5135798;27;20028;-59
2020/12/20 08:04:18;;;;;;;23.13;7.00;;;7.80;99.90;;;;;;5123171;27;20026;-59
2020/12/20 08:06:53;;;;;;;23.77;5.80;;;7.80;99.90;;;;;;5142217;27;20011;-59
2020/12/20 08:09:23;;;;;;;21.73;6.00;;;7.80;99.90;;;;;;5149927;27;20071;-59
2020/12/20 08:11:50;;;;;;;23.27;6.55;;;7.80;99.90;;;;;;5146460;27;20023;-60
2020/12/20 08:14:17;;;;;;;24.27;6.50;;;7.90;99.90;;;;;;5134492;27;20030;-59
2020/12/20 08:16:51;;;;;;;28.33;6.30;;;7.90;99.90;;;;;;5145474;27;20494;-60
2020/12/20 08:19:18;;;;;;;28.70;7.20;;;7.90;99.90;;;;;;5135688;27;20648;-62
2020/12/20 08:22:02;;;;;;;24.35;7.07;;;7.90;99.90;;;;;;5140958;27;20033;-58
2020/12/20 08:24:41;;;;;;;32.90;6.68;;;7.90;99.90;;;;;;5140073;27;20027;-60
2020/12/20 08:27:14;;;;;;;24.70;7.10;;;8.00;99.90;;;;;;5139103;27;20135;-60
2020/12/20 08:29:39;;;;;;;;;;;8.00;99.90;;;;;;5129506;27;20019;-60
2020/12/20 08:32:16;;;;;;;24.58;6.85;;;8.00;99.90;;;;;;5133695;27;19914;-61
2020/12/20 08:34:42;;;;;;;20.77;6.55;;;8.00;99.90;;;;;;5149589;27;20026;-58
2020/12/20 08:37:09;;;;;;;25.98;7.60;;;8.00;99.90;;;;;;5142521;27;20173;-59
2020/12/20 08:39:35;;;;;;;24.27;6.75;;;8.00;99.90;;;;;;5127526;27;20027;-60
2020/12/20 08:42:05;;;;;;;17.48;6.30;;;8.00;99.90;;;;;;5121098;27;20094;-60
2020/12/20 08:44:32;;;;;;;33.45;7.78;;;8.00;99.90;;;;;;5144088;27;20046;-59
2020/12/20 08:47:10;;;;;;;27.73;6.70;;;8.10;99.90;;;;;;5133923;27;20399;-61
2020/12/20 08:49:36;;;;;;;30.30;6.15;;;8.10;99.90;;;;;;5140358;27;20120;-61
2020/12/20 08:52:12;;;;;;;19.23;6.45;;;8.10;99.90;;;;;;5143159;27;20544;-60
2020/12/20 08:54:39;;;;;;;26.95;6.63;;;8.10;99.90;;;;;;5144123;27;20135;-60
2020/12/20 08:57:07;;;;;;;24.17;6.35;;;8.20;99.90;;;;;;5134526;27;20115;-60
2020/12/20 08:59:34;;;;;;;26.20;6.45;;;8.20;99.90;;;;;;5145094;27;20031;-60
2020/12/20 09:02:01;;;;;;;23.33;6.63;;;8.20;99.90;;;;;;5145275;27;20030;-61
2020/12/20 09:04:31;;;;;;;29.50;5.90;;;8.20;99.90;;;;;;5149458;27;20057;-60
2020/12/20 09:07:11;;;;;;;36.17;7.13;;;8.20;99.90;;;;;;5140087;27;20035;-60
2020/12/20 09:09:37;;;;;;;23.63;6.78;;;8.20;99.90;;;;;;5144184;27;20061;-60
2020/12/20 09:12:17;;;;;;;20.23;6.60;;;8.30;99.90;;;;;;5136676;27;20011;-60
2020/12/20 09:15:07;;;;;;;33.45;6.40;;;8.30;99.90;;;;;;5145863;27;20048;-60
2020/12/20 09:17:38;;;;;;;31.50;6.63;;;8.30;99.90;;;;;;5146739;27;20025;-60
2020/12/20 09:20:06;;;;;;;23.92;6.57;;;8.30;99.90;;;;;;5146319;27;20545;-60
2020/12/20 09:22:48;;;;;;;22.52;6.90;;;8.40;99.90;;;;;;5142069;27;20022;-60
2020/12/20 09:25:16;;;;;;;32.57;6.63;;;8.30;99.90;;;;;;5146187;27;20031;-61
2020/12/20 09:27:56;;;;;;;30.30;8.25;;;8.30;99.90;;;;;;5141727;27;20049;-61
2020/12/20 09:30:36;;;;;;;21.80;6.22;;;8.40;99.90;;;;;;5145368;27;20014;-60
2020/12/20 09:33:36;;;;;;;22.73;6.38;;;8.40;99.90;;;;;;5170447;27;20023;-58
2020/12/20 09:36:03;;;;;;;25.50;7.22;;;8.50;99.90;;;;;;5171816;27;20023;-58
2020/12/20 09:38:43;;;;;;;23.67;7.57;;;8.50;99.90;;;;;;5168033;27;20033;-60
2020/12/20 09:41:20;;;;;;;31.80;6.95;;;8.60;99.90;;;;;;5135023;27;20442;-60
2020/12/20 09:43:47;;;;;;;22.48;7.22;;;8.70;99.90;;;;;;5116836;27;20043;-60
2020/12/20 09:46:22;;;;;;;19.70;6.25;;;8.70;99.90;;;;;;5147291;27;20085;-60
2020/12/20 09:48:48;;;;;;;20.40;5.65;;;8.90;99.90;;;;;;5129140;27;20037;-61
2020/12/20 09:51:14;;;;;;;22.33;6.28;;;8.90;99.90;;;;;;5135842;27;20023;-60
2020/12/20 09:53:39;;;;;;;41.65;7.15;;;9.00;99.90;;;;;;5145593;27;20034;-60
2020/12/20 09:56:05;;;;;;;30.25;5.70;;;9.00;99.90;;;;;;5141617;27;20048;-64
2020/12/20 09:58:32;;;;;;;20.13;7.00;;;9.10;99.90;;;;;;5148413;27;20115;-60
2020/12/20 10:00:57;;;;;;;20.65;5.72;;;9.20;99.90;;;;;;5145723;27;20488;-61
2020/12/20 10:03:25;;;;;;;28.10;7.32;;;9.20;99.90;;;;;;5150573;27;20041;-59
2020/12/20 10:05:50;;;;;;;21.73;6.50;;;9.30;99.90;;;;;;5143177;27;20461;-59
2020/12/20 10:08:16;;;;;;;23.80;6.40;;;9.40;99.90;;;;;;5137293;27;20490;-60
2020/12/20 10:10:42;;;;;;;24.42;6.45;;;9.40;99.90;;;;;;5134263;27;20094;-60
2020/12/20 10:13:08;;;;;;;20.58;6.07;;;9.40;99.90;;;;;;5145472;27;20702;-61
2020/12/20 10:15:34;;;;;;;24.30;7.32;;;9.40;99.90;;;;;;5126980;27;20033;-60
2020/12/20 10:18:03;;;;;;;27.58;6.88;;;9.50;99.90;;;;;;5149284;27;20488;-60
2020/12/20 10:20:31;;;;;;;23.95;6.45;;;9.50;99.90;;;;;;5139327;27;20110;-60
2020/12/20 10:26:19;;;;;;;28.85;6.65;;;9.60;99.90;;;;;;5121937;27;20072;-60
2020/12/20 10:28:44;;;;;;;22.70;5.63;;;9.60;99.90;;;;;;5123628;27;20015;-60
2020/12/20 10:31:10;;;;;;;20.38;6.80;;;9.60;99.90;;;;;;5121897;27;20373;-60
2020/12/20 10:33:37;;;;;;;23.05;6.97;;;9.60;99.90;;;;;;5115145;27;20019;-59
2020/12/20 10:36:02;;;;;;;22.38;6.90;;;9.60;99.90;;;;;;5143386;27;20019;-61
2020/12/20 10:38:28;;;;;;;28.48;6.85;;;9.60;99.90;;;;;;5135034;27;20079;-59
2020/12/20 10:40:53;;;;;;;22.88;6.60;;;9.70;99.90;;;;;;5137714;27;20015;-60
2020/12/20 10:43:19;;;;;;;24.05;6.75;;;9.70;99.90;;;;;;5121232;27;20180;-60
2020/12/20 10:45:45;;;;;;;21.83;5.97;;;9.80;99.90;;;;;;5144220;27;20027;-61
2020/12/20 10:48:10;;;;;;;26.35;6.40;;;9.70;99.90;;;;;;5140638;27;20034;-61
2020/12/20 10:50:36;;;;;;;21.05;5.70;;;9.70;99.90;;;;;;5142740;27;20026;-61
2020/12/20 10:53:02;;;;;;;24.80;7.00;;;9.80;99.90;;;;;;5122522;27;20019;-59
2020/12/20 10:55:28;;;;;;;22.10;7.78;;;9.90;99.90;;;;;;5141428;27;20044;-59
2020/12/20 10:57:53;;;;;;;26.58;5.90;;;9.90;99.90;;;;;;5140774;27;20023;-60
2020/12/20 11:00:19;;;;;;;16.25;5.70;;;10.00;99.90;;;;;;5141307;27;20030;-59
2020/12/20 11:02:44;;;;;;;23.63;7.18;;;10.00;99.90;;;;;;5144982;27;20545;-60
2020/12/20 11:05:10;;;;;;;21.48;6.20;;;10.10;99.90;;;;;;5136991;27;20042;-61
2020/12/20 11:07:35;;;;;;;22.75;6.90;;;10.00;99.90;;;;;;5133544;27;20076;-60
2020/12/20 11:10:01;;;;;;;25.17;7.30;;;9.90;99.90;;;;;;5130007;27;20764;-59
2020/12/20 11:12:26;;;;;;;22.02;7.18;;;9.90;99.90;;;;;;5140271;27;20023;-59
2020/12/20 11:14:52;;;;;;;24.88;6.78;;;9.90;99.90;;;;;;5119248;27;20031;-60
2020/12/20 11:17:17;;;;;;;28.98;7.15;;;9.90;99.90;;;;;;5131238;27;20162;-59
2020/12/20 11:19:43;;;;;;;22.77;6.55;;;10.00;99.90;;;;;;5133399;27;20030;-60
2020/12/20 11:22:08;;;;;;;17.77;6.53;;;9.90;99.90;;;;;;5135461;27;20027;-60
2020/12/20 11:24:34;;;;;;;27.52;7.15;;;9.90;99.90;;;;;;5127500;27;20105;-60
2020/12/20 11:26:59;;;;;;;27.92;8.18;;;9.90;99.90;;;;;;5134255;27;20015;-59
2020/12/20 11:29:25;;;;;;;31.42;6.65;;;10.00;99.90;;;;;;5131879;27;20420;-60
2020/12/20 11:31:50;;;;;;;30.33;6.53;;;10.00;99.90;;;;;;5139797;27;20371;-60
2020/12/20 11:34:16;;;;;;;18.60;6.28;;;10.00;99.90;;;;;;5125272;27;20115;-60
2020/12/20 11:36:42;;;;;;;22.80;5.63;;;10.10;99.90;;;;;;5106944;27;20101;-60
2020/12/20 11:39:10;;;;;;;24.77;6.38;;;10.10;99.90;;;;;;5142615;27;20030;-59
2020/12/20 11:41:37;;;;;;;23.42;5.88;;;10.00;99.90;;;;;;5143287;27;20391;-59
2020/12/20 11:44:02;;;;;;;16.92;6.13;;;10.00;99.90;;;;;;5122711;27;20039;-60
2020/12/20 11:46:28;;;;;;;19.73;5.80;;;10.00;99.90;;;;;;5127775;27;20084;-60
2020/12/20 11:48:54;;;;;;;21.13;5.70;;;10.00;99.90;;;;;;5120954;27;20027;-60
2020/12/20 11:51:21;;;;;;;20.00;5.55;;;10.00;99.90;;;;;;5116238;27;20027;-60
2020/12/20 11:53:46;;;;;;;30.15;5.85;;;10.00;99.90;;;;;;5118287;27;20030;-62
2020/12/20 11:56:13;;;;;;;26.67;5.53;;;10.00;99.90;;;;;;5117151;27;20023;-59
2020/12/20 11:58:39;;;;;;;19.73;5.25;;;10.00;99.90;;;;;;5117669;27;20446;-61
2020/12/20 12:01:06;;;;;;;20.98;5.43;;;10.00;99.90;;;;;;5120479;27;20110;-60
2020/12/20 12:03:31;;;;;;;28.98;5.80;;;10.10;99.90;;;;;;5112731;27;20035;-60
2020/12/20 12:05:58;;;;;;;28.52;6.35;;;10.10;99.90;;;;;;5108616;27;20031;-59
2020/12/20 12:08:24;;;;;;;22.55;5.95;;;10.10;99.90;;;;;;5113426;27;20024;-63
2020/12/20 12:10:49;;;;;;;26.48;5.70;;;10.10;99.90;;;;;;5123021;27;20023;-59
2020/12/20 12:13:16;;;;;;;29.52;5.57;;;10.10;99.90;;;;;;5138360;27;20026;-60
2020/12/20 12:15:42;;;;;;;23.98;5.38;;;10.10;99.90;;;;;;5117569;27;20230;-59
2020/12/20 12:18:08;;;;;;;29.40;6.63;;;10.10;99.90;;;;;;5121786;27;20890;-60
2020/12/20 12:20:34;;;;;;;28.98;5.25;;;10.10;99.90;;;;;;5119576;27;20110;-59
2020/12/20 12:23:00;;;;;;;23.00;5.25;;;10.10;99.90;;;;;;5117468;27;20102;-60
2020/12/20 12:25:26;;;;;;;27.00;6.47;;;10.10;99.90;;;;;;5112878;27;20153;-59
2020/12/20 12:27:52;;;;;;;20.35;5.25;;;10.10;99.90;;;;;;5108129;27;20047;-60
2020/12/20 12:30:18;;;;;;;20.20;6.13;;;10.20;99.90;;;;;;5119674;27;20575;-62
2020/12/20 12:32:44;;;;;;;19.92;5.22;;;10.30;99.90;;;;;;5119743;27;20024;-60
2020/12/20 12:35:09;;;;;;;23.13;5.60;;;10.40;99.90;;;;;;5124902;27;20441;-61
2020/12/20 12:37:36;;;;;;;29.33;4.68;;;10.50;99.90;;;;;;5116090;27;20039;-61
2020/12/20 12:40:03;;;;;;;29.88;5.68;;;10.70;99.90;;;;;;5116539;27;20548;-61
2020/12/20 12:42:29;;;;;;;18.15;4.43;;;10.60;99.90;;;;;;5114953;27;20035;-59
2020/12/20 12:44:55;;;;;;;16.80;4.75;;;10.50;99.90;;;;;;5136578;27;20110;-60
2020/12/20 12:47:22;;;;;;;28.10;4.88;;;10.50;99.90;;;;;;5136993;27;20047;-61
2020/12/20 12:49:48;;;;;;;25.15;4.68;;;10.70;99.90;;;;;;5141761;27;20067;-61
2020/12/20 12:52:13;;;;;;;21.65;4.25;;;10.70;99.90;;;;;;5139315;27;20111;-61